sensor_id;sensor_type;location;lat;lon;timestamp;P1;durP1;ratioP1;P2;durP2;ratioP2
56720;SDS011;53183;47.412;18.884;2023-02-27T00:01:21;8.10;;;2.45;;
56720;SDS011;53183;47.412;18.884;2023-02-27T00:03:48;2.78;;;1.50;;
56720;SDS011;53183;47.412;18.884;2023-02-27T00:06:15;4.97;;;2.55;;
56720;SDS011;53183;47.412;18.884;2023-02-27T00:08:43;3.40;;;1.58;;
56720;SDS011;53183;47.412;18.884;2023-02-27T00:11:11;3.55;;;1.50;;
56720;SDS011;53183;47.412;18.884;2023-02-27T00:13:38;4.55;;;1.60;;
56720;SDS011;53183;47.412;18.884;2023-02-27T00:16:05;3.33;;;1.98;;
56720;SDS011;53183;47.412;18.884;2023-02-27T00:18:33;4.55;;;1.90;;
56720;SDS011;53183;47.412;18.884;2023-02-27T00:21:00;4.50;;;2.03;;
56720;SDS011;53183;47.412;18.884;2023-02-27T00:23:27;3.15;;;1.52;;
56720;SDS011;53183;47.412;18.884;2023-02-27T00:25:55;2.67;;;1.70;;
56720;SDS011;53183;47.412;18.884;2023-02-27T00:28:22;3.67;;;1.90;;
56720;SDS011;53183;47.412;18.884;2023-02-27T00:30:49;4.60;;;2.12;;
56720;SDS011;53183;47.412;18.884;2023-02-27T00:33:17;2.92;;;2.00;;
56720;SDS011;53183;47.412;18.884;2023-02-27T00:35:44;5.95;;;1.83;;
56720;SDS011;53183;47.412;18.884;2023-02-27T00:38:11;6.05;;;2.15;;
56720;SDS011;53183;47.412;18.884;2023-02-27T00:40:38;4.72;;;2.15;;
56720;SDS011;53183;47.412;18.884;2023-02-27T00:43:06;3.60;;;1.90;;
56720;SDS011;53183;47.412;18.884;2023-02-27T00:45:33;5.55;;;2.00;;
56720;SDS011;53183;47.412;18.884;2023-02-27T00:48:00;9.93;;;2.62;;
56720;SDS011;53183;47.412;18.884;2023-02-27T00:50:27;5.07;;;2.37;;
56720;SDS011;53183;47.412;18.884;2023-02-27T00:52:54;4.60;;;2.65;;
56720;SDS011;53183;47.412;18.884;2023-02-27T00:55:22;4.30;;;2.10;;
56720;SDS011;53183;47.412;18.884;2023-02-27T00:57:52;7.00;;;2.20;;
56720;SDS011;53183;47.412;18.884;2023-02-27T01:00:20;5.18;;;2.25;;
56720;SDS011;53183;47.412;18.884;2023-02-27T01:02:47;4.12;;;2.28;;
56720;SDS011;53183;47.412;18.884;2023-02-27T01:05:14;4.28;;;2.60;;
56720;SDS011;53183;47.412;18.884;2023-02-27T01:07:41;6.15;;;2.10;;
56720;SDS011;53183;47.412;18.884;2023-02-27T01:10:09;4.53;;;2.28;;
56720;SDS011;53183;47.412;18.884;2023-02-27T01:12:38;3.83;;;2.33;;
56720;SDS011;53183;47.412;18.884;2023-02-27T01:15:06;4.70;;;2.28;;
56720;SDS011;53183;47.412;18.884;2023-02-27T01:17:34;5.85;;;2.83;;
56720;SDS011;53183;47.412;18.884;2023-02-27T01:20:03;5.10;;;2.65;;
56720;SDS011;53183;47.412;18.884;2023-02-27T01:22:32;5.60;;;2.50;;
56720;SDS011;53183;47.412;18.884;2023-02-27T01:25:00;5.00;;;2.67;;
56720;SDS011;53183;47.412;18.884;2023-02-27T01:27:27;5.65;;;2.50;;
56720;SDS011;53183;47.412;18.884;2023-02-27T01:29:56;2.97;;;1.73;;
56720;SDS011;53183;47.412;18.884;2023-02-27T01:32:24;5.45;;;2.22;;
56720;SDS011;53183;47.412;18.884;2023-02-27T01:34:51;5.80;;;2.70;;
56720;SDS011;53183;47.412;18.884;2023-02-27T01:37:18;5.07;;;2.95;;
56720;SDS011;53183;47.412;18.884;2023-02-27T01:39:46;8.40;;;2.65;;
56720;SDS011;53183;47.412;18.884;2023-02-27T01:42:17;5.65;;;2.80;;
56720;SDS011;53183;47.412;18.884;2023-02-27T01:45:49;7.32;;;2.42;;
56720;SDS011;53183;47.412;18.884;2023-02-27T01:50:49;7.15;;;2.67;;
56720;SDS011;53183;47.412;18.884;2023-02-27T01:53:20;6.70;;;2.85;;
56720;SDS011;53183;47.412;18.884;2023-02-27T01:55:52;6.30;;;2.22;;
56720;SDS011;53183;47.412;18.884;2023-02-27T01:58:24;4.80;;;2.17;;
56720;SDS011;53183;47.412;18.884;2023-02-27T02:00:53;6.43;;;2.70;;
56720;SDS011;53183;47.412;18.884;2023-02-27T02:03:23;3.53;;;2.17;;
56720;SDS011;53183;47.412;18.884;2023-02-27T02:05:52;4.20;;;2.22;;
56720;SDS011;53183;47.412;18.884;2023-02-27T02:08:24;6.45;;;2.50;;
56720;SDS011;53183;47.412;18.884;2023-02-27T02:10:53;4.53;;;2.58;;
56720;SDS011;53183;47.412;18.884;2023-02-27T02:13:23;5.60;;;2.47;;
56720;SDS011;53183;47.412;18.884;2023-02-27T02:16:00;4.25;;;2.35;;
56720;SDS011;53183;47.412;18.884;2023-02-27T02:21:36;5.47;;;2.50;;
56720;SDS011;53183;47.412;18.884;2023-02-27T02:27:03;5.57;;;1.90;;
56720;SDS011;53183;47.412;18.884;2023-02-27T02:38:24;6.15;;;2.67;;
56720;SDS011;53183;47.412;18.884;2023-02-27T02:43:28;5.00;;;2.30;;
56720;SDS011;53183;47.412;18.884;2023-02-27T02:51:51;3.85;;;2.45;;
56720;SDS011;53183;47.412;18.884;2023-02-27T02:57:47;5.12;;;2.05;;
56720;SDS011;53183;47.412;18.884;2023-02-27T03:00:23;6.57;;;3.28;;
56720;SDS011;53183;47.412;18.884;2023-02-27T03:02:58;6.68;;;2.95;;
56720;SDS011;53183;47.412;18.884;2023-02-27T03:05:37;6.95;;;2.15;;
56720;SDS011;53183;47.412;18.884;2023-02-27T03:08:14;3.70;;;2.15;;
56720;SDS011;53183;47.412;18.884;2023-02-27T03:10:51;10.85;;;2.70;;
56720;SDS011;53183;47.412;18.884;2023-02-27T03:13:26;4.87;;;2.28;;
56720;SDS011;53183;47.412;18.884;2023-02-27T03:16:11;5.47;;;2.60;;
56720;SDS011;53183;47.412;18.884;2023-02-27T03:18:58;3.10;;;2.35;;
56720;SDS011;53183;47.412;18.884;2023-02-27T03:21:40;3.20;;;1.83;;
56720;SDS011;53183;47.412;18.884;2023-02-27T03:24:10;6.97;;;3.25;;
56720;SDS011;53183;47.412;18.884;2023-02-27T03:26:42;6.47;;;2.47;;
56720;SDS011;53183;47.412;18.884;2023-02-27T03:29:13;2.92;;;1.87;;
56720;SDS011;53183;47.412;18.884;2023-02-27T03:31:48;5.10;;;2.62;;
56720;SDS011;53183;47.412;18.884;2023-02-27T03:34:33;7.35;;;2.50;;
56720;SDS011;53183;47.412;18.884;2023-02-27T03:37:11;5.72;;;2.62;;
56720;SDS011;53183;47.412;18.884;2023-02-27T03:40:26;4.57;;;2.78;;
56720;SDS011;53183;47.412;18.884;2023-02-27T03:43:05;4.07;;;2.22;;
56720;SDS011;53183;47.412;18.884;2023-02-27T03:48:24;5.05;;;2.72;;
56720;SDS011;53183;47.412;18.884;2023-02-27T03:50:53;3.87;;;2.58;;
56720;SDS011;53183;47.412;18.884;2023-02-27T03:55:59;3.60;;;2.40;;
56720;SDS011;53183;47.412;18.884;2023-02-27T03:58:31;5.95;;;2.47;;
56720;SDS011;53183;47.412;18.884;2023-02-27T04:01:00;5.53;;;3.17;;
56720;SDS011;53183;47.412;18.884;2023-02-27T04:03:27;6.50;;;2.55;;
56720;SDS011;53183;47.412;18.884;2023-02-27T04:05:58;7.62;;;2.87;;
56720;SDS011;53183;47.412;18.884;2023-02-27T04:08:49;4.75;;;2.25;;
56720;SDS011;53183;47.412;18.884;2023-02-27T04:11:41;2.90;;;2.00;;
56720;SDS011;53183;47.412;18.884;2023-02-27T04:14:34;4.75;;;3.00;;
56720;SDS011;53183;47.412;18.884;2023-02-27T04:22:35;6.78;;;3.08;;
56720;SDS011;53183;47.412;18.884;2023-02-27T04:27:59;7.85;;;2.33;;
56720;SDS011;53183;47.412;18.884;2023-02-27T04:38:22;5.68;;;2.28;;
56720;SDS011;53183;47.412;18.884;2023-02-27T04:40:58;6.15;;;2.20;;
56720;SDS011;53183;47.412;18.884;2023-02-27T04:43:31;3.37;;;1.80;;
56720;SDS011;53183;47.412;18.884;2023-02-27T04:46:02;6.32;;;2.40;;
56720;SDS011;53183;47.412;18.884;2023-02-27T04:48:33;6.07;;;2.72;;
56720;SDS011;53183;47.412;18.884;2023-02-27T04:51:06;5.60;;;2.40;;
56720;SDS011;53183;47.412;18.884;2023-02-27T04:53:56;8.80;;;3.17;;
56720;SDS011;53183;47.412;18.884;2023-02-27T04:56:29;4.50;;;1.83;;
56720;SDS011;53183;47.412;18.884;2023-02-27T04:59:01;4.68;;;2.35;;
56720;SDS011;53183;47.412;18.884;2023-02-27T05:01:40;5.03;;;2.72;;
56720;SDS011;53183;47.412;18.884;2023-02-27T05:04:13;6.72;;;2.85;;
56720;SDS011;53183;47.412;18.884;2023-02-27T05:06:44;9.07;;;2.53;;
56720;SDS011;53183;47.412;18.884;2023-02-27T05:09:17;7.50;;;2.85;;
56720;SDS011;53183;47.412;18.884;2023-02-27T05:11:59;8.18;;;2.42;;
56720;SDS011;53183;47.412;18.884;2023-02-27T05:14:38;4.47;;;2.35;;
56720;SDS011;53183;47.412;18.884;2023-02-27T05:17:14;6.12;;;2.42;;
56720;SDS011;53183;47.412;18.884;2023-02-27T05:19:45;6.55;;;2.62;;
56720;SDS011;53183;47.412;18.884;2023-02-27T05:27:50;8.02;;;2.90;;
56720;SDS011;53183;47.412;18.884;2023-02-27T05:35:49;6.32;;;3.53;;
56720;SDS011;53183;47.412;18.884;2023-02-27T05:39:12;16.77;;;5.60;;
56720;SDS011;53183;47.412;18.884;2023-02-27T05:41:21;18.62;;;7.47;;
56720;SDS011;53183;47.412;18.884;2023-02-27T05:44:00;16.20;;;5.65;;
56720;SDS011;53183;47.412;18.884;2023-02-27T05:46:38;21.37;;;7.78;;
56720;SDS011;53183;47.412;18.884;2023-02-27T05:49:17;21.55;;;7.82;;
56720;SDS011;53183;47.412;18.884;2023-02-27T05:51:50;14.85;;;5.45;;
56720;SDS011;53183;47.412;18.884;2023-02-27T05:54:24;10.52;;;4.22;;
56720;SDS011;53183;47.412;18.884;2023-02-27T05:56:58;10.93;;;3.85;;
56720;SDS011;53183;47.412;18.884;2023-02-27T05:59:50;6.32;;;2.87;;
56720;SDS011;53183;47.412;18.884;2023-02-27T06:02:37;7.28;;;3.25;;
56720;SDS011;53183;47.412;18.884;2023-02-27T06:05:06;10.50;;;4.80;;
56720;SDS011;53183;47.412;18.884;2023-02-27T06:07:33;15.85;;;4.60;;
56720;SDS011;53183;47.412;18.884;2023-02-27T06:10:01;12.05;;;4.70;;
56720;SDS011;53183;47.412;18.884;2023-02-27T06:12:31;7.87;;;3.30;;
56720;SDS011;53183;47.412;18.884;2023-02-27T06:14:58;6.35;;;2.95;;
56720;SDS011;53183;47.412;18.884;2023-02-27T06:17:25;6.25;;;3.58;;
56720;SDS011;53183;47.412;18.884;2023-02-27T06:19:52;6.78;;;3.45;;
56720;SDS011;53183;47.412;18.884;2023-02-27T06:22:19;9.80;;;3.70;;
56720;SDS011;53183;47.412;18.884;2023-02-27T06:24:47;5.47;;;3.30;;
56720;SDS011;53183;47.412;18.884;2023-02-27T06:27:14;4.78;;;2.60;;
56720;SDS011;53183;47.412;18.884;2023-02-27T06:29:41;8.65;;;2.92;;
56720;SDS011;53183;47.412;18.884;2023-02-27T06:32:08;5.37;;;2.53;;
56720;SDS011;53183;47.412;18.884;2023-02-27T06:34:36;9.40;;;2.90;;
56720;SDS011;53183;47.412;18.884;2023-02-27T06:37:03;10.23;;;3.53;;
56720;SDS011;53183;47.412;18.884;2023-02-27T06:39:30;12.57;;;2.83;;
56720;SDS011;53183;47.412;18.884;2023-02-27T06:41:58;6.20;;;3.20;;
56720;SDS011;53183;47.412;18.884;2023-02-27T06:44:25;4.72;;;2.20;;
56720;SDS011;53183;47.412;18.884;2023-02-27T06:46:52;14.75;;;5.10;;
56720;SDS011;53183;47.412;18.884;2023-02-27T06:49:20;5.55;;;2.60;;
56720;SDS011;53183;47.412;18.884;2023-02-27T06:51:47;5.85;;;2.42;;
56720;SDS011;53183;47.412;18.884;2023-02-27T06:54:14;9.50;;;2.75;;
56720;SDS011;53183;47.412;18.884;2023-02-27T06:56:42;5.03;;;2.75;;
56720;SDS011;53183;47.412;18.884;2023-02-27T06:59:09;8.15;;;2.30;;
56720;SDS011;53183;47.412;18.884;2023-02-27T07:01:36;10.07;;;2.50;;
56720;SDS011;53183;47.412;18.884;2023-02-27T07:04:04;6.57;;;2.60;;
56720;SDS011;53183;47.412;18.884;2023-02-27T07:06:32;5.45;;;2.45;;
56720;SDS011;53183;47.412;18.884;2023-02-27T07:09:19;8.10;;;3.22;;
56720;SDS011;53183;47.412;18.884;2023-02-27T07:11:46;5.95;;;2.55;;
56720;SDS011;53183;47.412;18.884;2023-02-27T07:14:13;3.85;;;1.98;;
56720;SDS011;53183;47.412;18.884;2023-02-27T07:16:42;4.12;;;2.03;;
56720;SDS011;53183;47.412;18.884;2023-02-27T07:19:09;5.18;;;2.03;;
56720;SDS011;53183;47.412;18.884;2023-02-27T07:21:37;3.95;;;2.25;;
56720;SDS011;53183;47.412;18.884;2023-02-27T07:24:04;7.35;;;2.87;;
56720;SDS011;53183;47.412;18.884;2023-02-27T07:26:31;6.85;;;2.92;;
56720;SDS011;53183;47.412;18.884;2023-02-27T07:28:58;11.93;;;2.80;;
56720;SDS011;53183;47.412;18.884;2023-02-27T07:31:26;7.78;;;2.00;;
56720;SDS011;53183;47.412;18.884;2023-02-27T07:33:54;5.05;;;2.05;;
56720;SDS011;53183;47.412;18.884;2023-02-27T07:36:22;7.60;;;2.28;;
56720;SDS011;53183;47.412;18.884;2023-02-27T07:38:49;4.75;;;2.20;;
56720;SDS011;53183;47.412;18.884;2023-02-27T07:41:16;5.93;;;2.35;;
56720;SDS011;53183;47.412;18.884;2023-02-27T07:43:58;4.00;;;1.73;;
56720;SDS011;53183;47.412;18.884;2023-02-27T07:46:26;4.87;;;1.83;;
56720;SDS011;53183;47.412;18.884;2023-02-27T07:48:54;3.03;;;1.27;;
56720;SDS011;53183;47.412;18.884;2023-02-27T07:51:21;3.92;;;1.52;;
56720;SDS011;53183;47.412;18.884;2023-02-27T07:53:48;5.03;;;1.85;;
56720;SDS011;53183;47.412;18.884;2023-02-27T07:56:16;3.85;;;1.73;;
56720;SDS011;53183;47.412;18.884;2023-02-27T07:58:43;7.47;;;1.95;;
56720;SDS011;53183;47.412;18.884;2023-02-27T08:01:10;6.97;;;2.22;;
56720;SDS011;53183;47.412;18.884;2023-02-27T08:03:38;4.00;;;1.40;;
56720;SDS011;53183;47.412;18.884;2023-02-27T08:06:05;3.75;;;1.62;;
56720;SDS011;53183;47.412;18.884;2023-02-27T08:08:32;2.75;;;1.50;;
56720;SDS011;53183;47.412;18.884;2023-02-27T08:11:01;6.35;;;2.37;;
56720;SDS011;53183;47.412;18.884;2023-02-27T08:13:28;4.50;;;2.17;;
56720;SDS011;53183;47.412;18.884;2023-02-27T08:16:16;2.87;;;1.37;;
56720;SDS011;53183;47.412;18.884;2023-02-27T08:18:44;3.10;;;1.35;;
56720;SDS011;53183;47.412;18.884;2023-02-27T08:21:11;5.30;;;1.98;;
56720;SDS011;53183;47.412;18.884;2023-02-27T08:23:39;3.62;;;2.12;;
56720;SDS011;53183;47.412;18.884;2023-02-27T08:26:08;5.05;;;1.48;;
56720;SDS011;53183;47.412;18.884;2023-02-27T08:28:36;3.28;;;1.40;;
56720;SDS011;53183;47.412;18.884;2023-02-27T08:31:04;6.35;;;2.20;;
56720;SDS011;53183;47.412;18.884;2023-02-27T08:33:32;20.37;;;4.47;;
56720;SDS011;53183;47.412;18.884;2023-02-27T08:36:00;5.10;;;2.67;;
56720;SDS011;53183;47.412;18.884;2023-02-27T08:38:28;4.75;;;2.03;;
56720;SDS011;53183;47.412;18.884;2023-02-27T08:40:59;6.97;;;2.62;;
56720;SDS011;53183;47.412;18.884;2023-02-27T08:43:26;8.70;;;1.77;;
56720;SDS011;53183;47.412;18.884;2023-02-27T08:45:53;6.68;;;2.95;;
56720;SDS011;53183;47.412;18.884;2023-02-27T08:48:20;4.47;;;2.50;;
56720;SDS011;53183;47.412;18.884;2023-02-27T08:50:50;9.15;;;3.30;;
56720;SDS011;53183;47.412;18.884;2023-02-27T08:53:17;5.00;;;1.70;;
56720;SDS011;53183;47.412;18.884;2023-02-27T08:55:47;3.35;;;1.80;;
56720;SDS011;53183;47.412;18.884;2023-02-27T08:58:17;8.23;;;1.90;;
56720;SDS011;53183;47.412;18.884;2023-02-27T09:00:44;4.90;;;2.20;;
56720;SDS011;53183;47.412;18.884;2023-02-27T09:03:12;10.27;;;2.10;;
56720;SDS011;53183;47.412;18.884;2023-02-27T09:05:40;5.40;;;1.83;;
56720;SDS011;53183;47.412;18.884;2023-02-27T09:08:08;2.53;;;1.70;;
56720;SDS011;53183;47.412;18.884;2023-02-27T09:10:35;5.43;;;2.03;;
56720;SDS011;53183;47.412;18.884;2023-02-27T09:13:03;5.53;;;1.48;;
56720;SDS011;53183;47.412;18.884;2023-02-27T09:15:30;5.47;;;1.90;;
56720;SDS011;53183;47.412;18.884;2023-02-27T09:18:00;5.03;;;2.25;;
56720;SDS011;53183;47.412;18.884;2023-02-27T09:20:29;3.53;;;2.30;;
56720;SDS011;53183;47.412;18.884;2023-02-27T09:22:58;5.28;;;1.62;;
56720;SDS011;53183;47.412;18.884;2023-02-27T09:25:25;3.62;;;1.80;;
56720;SDS011;53183;47.412;18.884;2023-02-27T09:27:54;4.65;;;1.67;;
56720;SDS011;53183;47.412;18.884;2023-02-27T09:30:21;4.35;;;1.70;;
56720;SDS011;53183;47.412;18.884;2023-02-27T09:32:49;3.53;;;1.98;;
56720;SDS011;53183;47.412;18.884;2023-02-27T09:35:17;4.55;;;1.98;;
56720;SDS011;53183;47.412;18.884;2023-02-27T09:37:47;5.85;;;2.20;;
56720;SDS011;53183;47.412;18.884;2023-02-27T09:40:19;7.30;;;2.55;;
56720;SDS011;53183;47.412;18.884;2023-02-27T09:42:51;3.78;;;1.80;;
56720;SDS011;53183;47.412;18.884;2023-02-27T09:45:23;8.52;;;2.37;;
56720;SDS011;53183;47.412;18.884;2023-02-27T09:47:59;5.57;;;1.85;;
56720;SDS011;53183;47.412;18.884;2023-02-27T09:50:39;9.00;;;2.72;;
56720;SDS011;53183;47.412;18.884;2023-02-27T09:53:27;6.18;;;2.35;;
56720;SDS011;53183;47.412;18.884;2023-02-27T09:56:03;3.50;;;2.00;;
56720;SDS011;53183;47.412;18.884;2023-02-27T09:58:57;6.62;;;1.95;;
56720;SDS011;53183;47.412;18.884;2023-02-27T10:02:12;3.95;;;1.95;;
56720;SDS011;53183;47.412;18.884;2023-02-27T10:04:32;5.22;;;2.35;;
56720;SDS011;53183;47.412;18.884;2023-02-27T10:09:59;5.93;;;2.83;;
56720;SDS011;53183;47.412;18.884;2023-02-27T10:16:00;10.35;;;2.40;;
56720;SDS011;53183;47.412;18.884;2023-02-27T10:18:17;4.57;;;1.98;;
56720;SDS011;53183;47.412;18.884;2023-02-27T10:23:40;5.45;;;2.75;;
56720;SDS011;53183;47.412;18.884;2023-02-27T10:26:22;5.72;;;2.25;;
56720;SDS011;53183;47.412;18.884;2023-02-27T10:28:52;8.13;;;2.53;;
56720;SDS011;53183;47.412;18.884;2023-02-27T10:31:21;35.58;;;2.65;;
56720;SDS011;53183;47.412;18.884;2023-02-27T10:33:53;14.23;;;2.53;;
56720;SDS011;53183;47.412;18.884;2023-02-27T10:36:22;9.30;;;2.10;;
56720;SDS011;53183;47.412;18.884;2023-02-27T10:39:09;8.50;;;2.12;;
56720;SDS011;53183;47.412;18.884;2023-02-27T10:41:43;4.25;;;2.10;;
56720;SDS011;53183;47.412;18.884;2023-02-27T10:44:14;14.43;;;3.08;;
56720;SDS011;53183;47.412;18.884;2023-02-27T10:46:43;7.18;;;2.10;;
56720;SDS011;53183;47.412;18.884;2023-02-27T10:49:13;4.25;;;2.28;;
56720;SDS011;53183;47.412;18.884;2023-02-27T10:51:46;5.03;;;2.37;;
56720;SDS011;53183;47.412;18.884;2023-02-27T10:54:30;7.57;;;3.00;;
56720;SDS011;53183;47.412;18.884;2023-02-27T10:56:59;6.32;;;2.37;;
56720;SDS011;53183;47.412;18.884;2023-02-27T11:02:05;6.20;;;2.42;;
56720;SDS011;53183;47.412;18.884;2023-02-27T11:04:53;7.22;;;2.45;;
56720;SDS011;53183;47.412;18.884;2023-02-27T11:08:08;6.18;;;2.35;;
56720;SDS011;53183;47.412;18.884;2023-02-27T11:10:18;7.30;;;2.75;;
56720;SDS011;53183;47.412;18.884;2023-02-27T11:18:50;4.75;;;2.62;;
56720;SDS011;53183;47.412;18.884;2023-02-27T11:24:17;3.58;;;2.47;;
56720;SDS011;53183;47.412;18.884;2023-02-27T11:26:55;5.93;;;2.90;;
56720;SDS011;53183;47.412;18.884;2023-02-27T11:29:24;5.53;;;2.12;;
56720;SDS011;53183;47.412;18.884;2023-02-27T11:34:37;5.18;;;3.28;;
56720;SDS011;53183;47.412;18.884;2023-02-27T11:37:20;5.37;;;2.42;;
56720;SDS011;53183;47.412;18.884;2023-02-27T11:42:36;4.55;;;2.90;;
56720;SDS011;53183;47.412;18.884;2023-02-27T11:48:10;4.85;;;2.55;;
56720;SDS011;53183;47.412;18.884;2023-02-27T11:56:01;5.75;;;2.90;;
56720;SDS011;53183;47.412;18.884;2023-02-27T11:58:36;3.58;;;2.35;;
56720;SDS011;53183;47.412;18.884;2023-02-27T12:01:14;6.50;;;2.75;;
56720;SDS011;53183;47.412;18.884;2023-02-27T12:03:51;4.37;;;2.33;;
56720;SDS011;53183;47.412;18.884;2023-02-27T12:06:31;8.00;;;2.70;;
56720;SDS011;53183;47.412;18.884;2023-02-27T12:09:15;6.80;;;2.80;;
56720;SDS011;53183;47.412;18.884;2023-02-27T12:11:47;6.68;;;2.80;;
56720;SDS011;53183;47.412;18.884;2023-02-27T12:14:17;6.60;;;3.22;;
56720;SDS011;53183;47.412;18.884;2023-02-27T12:22:50;5.57;;;2.65;;
56720;SDS011;53183;47.412;18.884;2023-02-27T12:25:29;6.47;;;2.83;;
56720;SDS011;53183;47.412;18.884;2023-02-27T12:37:12;6.53;;;2.95;;
56720;SDS011;53183;47.412;18.884;2023-02-27T12:39:43;4.00;;;2.30;;
56720;SDS011;53183;47.412;18.884;2023-02-27T12:50:23;3.87;;;2.45;;
56720;SDS011;53183;47.412;18.884;2023-02-27T12:55:53;4.12;;;2.42;;
56720;SDS011;53183;47.412;18.884;2023-02-27T13:04:04;7.10;;;3.40;;
56720;SDS011;53183;47.412;18.884;2023-02-27T13:07:00;5.05;;;2.65;;
56720;SDS011;53183;47.412;18.884;2023-02-27T13:12:22;6.12;;;3.25;;
56720;SDS011;53183;47.412;18.884;2023-02-27T13:17:43;3.03;;;1.60;;
56720;SDS011;53183;47.412;18.884;2023-02-27T13:22:51;4.65;;;2.03;;
56720;SDS011;53183;47.412;18.884;2023-02-27T13:25:24;4.25;;;2.33;;
56720;SDS011;53183;47.412;18.884;2023-02-27T13:27:53;5.40;;;2.75;;
56720;SDS011;53183;47.412;18.884;2023-02-27T13:30:31;3.53;;;2.30;;
56720;SDS011;53183;47.412;18.884;2023-02-27T13:33:24;3.45;;;2.20;;
56720;SDS011;53183;47.412;18.884;2023-02-27T13:36:14;4.53;;;2.03;;
56720;SDS011;53183;47.412;18.884;2023-02-27T13:38:51;4.70;;;2.03;;
56720;SDS011;53183;47.412;18.884;2023-02-27T13:43:47;8.05;;;2.40;;
56720;SDS011;53183;47.412;18.884;2023-02-27T14:02:04;4.35;;;2.20;;
56720;SDS011;53183;47.412;18.884;2023-02-27T14:04:51;5.70;;;2.92;;
56720;SDS011;53183;47.412;18.884;2023-02-27T14:07:24;5.07;;;2.85;;
56720;SDS011;53183;47.412;18.884;2023-02-27T14:10:01;5.65;;;2.37;;
56720;SDS011;53183;47.412;18.884;2023-02-27T14:12:38;7.03;;;2.60;;
56720;SDS011;53183;47.412;18.884;2023-02-27T14:17:51;6.07;;;2.62;;
56720;SDS011;53183;47.412;18.884;2023-02-27T14:25:45;4.80;;;2.80;;
56720;SDS011;53183;47.412;18.884;2023-02-27T14:31:00;3.87;;;2.47;;
56720;SDS011;53183;47.412;18.884;2023-02-27T14:33:42;6.95;;;3.62;;
56720;SDS011;53183;47.412;18.884;2023-02-27T14:36:22;5.55;;;2.72;;
56720;SDS011;53183;47.412;18.884;2023-02-27T14:38:54;4.55;;;2.30;;
56720;SDS011;53183;47.412;18.884;2023-02-27T14:44:02;3.35;;;2.17;;
56720;SDS011;53183;47.412;18.884;2023-02-27T14:46:34;3.50;;;2.10;;
56720;SDS011;53183;47.412;18.884;2023-02-27T14:49:15;5.43;;;2.70;;
56720;SDS011;53183;47.412;18.884;2023-02-27T14:51:46;3.72;;;2.35;;
56720;SDS011;53183;47.412;18.884;2023-02-27T14:54:14;4.37;;;2.40;;
56720;SDS011;53183;47.412;18.884;2023-02-27T14:56:54;7.97;;;2.85;;
56720;SDS011;53183;47.412;18.884;2023-02-27T14:59:24;5.22;;;2.55;;
56720;SDS011;53183;47.412;18.884;2023-02-27T15:01:57;10.40;;;2.53;;
56720;SDS011;53183;47.412;18.884;2023-02-27T15:04:28;5.80;;;2.10;;
56720;SDS011;53183;47.412;18.884;2023-02-27T15:06:58;6.03;;;2.97;;
56720;SDS011;53183;47.412;18.884;2023-02-27T15:09:31;6.78;;;2.30;;
56720;SDS011;53183;47.412;18.884;2023-02-27T15:12:03;4.53;;;2.30;;
56720;SDS011;53183;47.412;18.884;2023-02-27T15:14:35;7.18;;;2.83;;
56720;SDS011;53183;47.412;18.884;2023-02-27T15:20:21;4.93;;;2.62;;
56720;SDS011;53183;47.412;18.884;2023-02-27T15:22:51;4.37;;;2.75;;
56720;SDS011;53183;47.412;18.884;2023-02-27T15:25:29;5.47;;;3.33;;
56720;SDS011;53183;47.412;18.884;2023-02-27T15:28:07;8.55;;;4.40;;
56720;SDS011;53183;47.412;18.884;2023-02-27T15:30:56;10.95;;;4.07;;
56720;SDS011;53183;47.412;18.884;2023-02-27T15:33:27;11.18;;;4.40;;
56720;SDS011;53183;47.412;18.884;2023-02-27T15:35:57;9.13;;;3.95;;
56720;SDS011;53183;47.412;18.884;2023-02-27T15:38:27;4.87;;;3.20;;
56720;SDS011;53183;47.412;18.884;2023-02-27T15:40:56;9.13;;;3.28;;
56720;SDS011;53183;47.412;18.884;2023-02-27T15:43:25;10.38;;;6.10;;
56720;SDS011;53183;47.412;18.884;2023-02-27T15:45:54;23.40;;;9.60;;
56720;SDS011;53183;47.412;18.884;2023-02-27T15:48:24;44.47;;;24.52;;
56720;SDS011;53183;47.412;18.884;2023-02-27T15:50:58;12.55;;;6.85;;
56720;SDS011;53183;47.412;18.884;2023-02-27T15:53:29;11.80;;;6.30;;
56720;SDS011;53183;47.412;18.884;2023-02-27T15:56:00;11.85;;;7.12;;
56720;SDS011;53183;47.412;18.884;2023-02-27T15:58:33;9.75;;;4.93;;
56720;SDS011;53183;47.412;18.884;2023-02-27T16:03:50;49.67;;;20.90;;
56720;SDS011;53183;47.412;18.884;2023-02-27T16:06:33;47.42;;;19.90;;
56720;SDS011;53183;47.412;18.884;2023-02-27T16:09:03;19.02;;;8.43;;
56720;SDS011;53183;47.412;18.884;2023-02-27T16:11:34;11.68;;;5.25;;
56720;SDS011;53183;47.412;18.884;2023-02-27T16:14:03;25.00;;;9.57;;
56720;SDS011;53183;47.412;18.884;2023-02-27T16:16:32;21.52;;;10.68;;
56720;SDS011;53183;47.412;18.884;2023-02-27T16:24:40;37.95;;;16.10;;
56720;SDS011;53183;47.412;18.884;2023-02-27T16:27:21;43.90;;;20.67;;
56720;SDS011;53183;47.412;18.884;2023-02-27T16:29:51;29.27;;;14.73;;
56720;SDS011;53183;47.412;18.884;2023-02-27T16:32:22;30.30;;;16.00;;
56720;SDS011;53183;47.412;18.884;2023-02-27T16:35:02;20.90;;;11.30;;
56720;SDS011;53183;47.412;18.884;2023-02-27T16:37:35;31.48;;;12.77;;
56720;SDS011;53183;47.412;18.884;2023-02-27T16:42:41;34.72;;;14.18;;
56720;SDS011;53183;47.412;18.884;2023-02-27T16:47:42;43.55;;;18.77;;
56720;SDS011;53183;47.412;18.884;2023-02-27T16:50:12;45.20;;;21.80;;
56720;SDS011;53183;47.412;18.884;2023-02-27T16:52:45;51.10;;;19.87;;
56720;SDS011;53183;47.412;18.884;2023-02-27T16:55:12;47.65;;;18.77;;
56720;SDS011;53183;47.412;18.884;2023-02-27T16:57:39;55.50;;;21.58;;
56720;SDS011;53183;47.412;18.884;2023-02-27T17:00:09;52.58;;;21.00;;
56720;SDS011;53183;47.412;18.884;2023-02-27T17:02:38;36.33;;;15.55;;
56720;SDS011;53183;47.412;18.884;2023-02-27T17:05:05;30.02;;;12.88;;
56720;SDS011;53183;47.412;18.884;2023-02-27T17:07:34;34.88;;;15.27;;
56720;SDS011;53183;47.412;18.884;2023-02-27T17:10:02;45.15;;;15.85;;
56720;SDS011;53183;47.412;18.884;2023-02-27T17:12:29;54.90;;;21.30;;
56720;SDS011;53183;47.412;18.884;2023-02-27T17:14:56;59.75;;;20.12;;
56720;SDS011;53183;47.412;18.884;2023-02-27T17:17:23;50.28;;;19.73;;
56720;SDS011;53183;47.412;18.884;2023-02-27T17:19:50;36.42;;;17.33;;
56720;SDS011;53183;47.412;18.884;2023-02-27T17:22:18;34.63;;;15.38;;
56720;SDS011;53183;47.412;18.884;2023-02-27T17:24:45;31.73;;;15.43;;
56720;SDS011;53183;47.412;18.884;2023-02-27T17:27:12;32.20;;;14.38;;
56720;SDS011;53183;47.412;18.884;2023-02-27T17:29:40;28.10;;;12.30;;
56720;SDS011;53183;47.412;18.884;2023-02-27T17:32:07;23.15;;;11.20;;
56720;SDS011;53183;47.412;18.884;2023-02-27T17:34:34;27.02;;;11.63;;
56720;SDS011;53183;47.412;18.884;2023-02-27T17:37:02;32.45;;;14.87;;
56720;SDS011;53183;47.412;18.884;2023-02-27T17:39:29;31.95;;;16.20;;
56720;SDS011;53183;47.412;18.884;2023-02-27T17:41:58;29.05;;;14.87;;
56720;SDS011;53183;47.412;18.884;2023-02-27T17:44:26;30.85;;;15.50;;
56720;SDS011;53183;47.412;18.884;2023-02-27T17:46:53;40.25;;;15.93;;
56720;SDS011;53183;47.412;18.884;2023-02-27T17:49:20;38.25;;;15.90;;
56720;SDS011;53183;47.412;18.884;2023-02-27T17:51:48;37.45;;;16.12;;
56720;SDS011;53183;47.412;18.884;2023-02-27T17:54:15;37.08;;;14.50;;
56720;SDS011;53183;47.412;18.884;2023-02-27T17:56:42;32.08;;;13.52;;
56720;SDS011;53183;47.412;18.884;2023-02-27T17:59:10;28.48;;;14.20;;
56720;SDS011;53183;47.412;18.884;2023-02-27T18:01:37;33.88;;;15.88;;
56720;SDS011;53183;47.412;18.884;2023-02-27T18:04:04;29.42;;;14.63;;